sensor_id;sensor_type;location;lat;lon;timestamp;P1;durP1;ratioP1;P2;durP2;ratioP2
19219;SDS011;9744;49.364;7.484;2023-04-24T00:00:33;4.22;;;1.45;;
19219;SDS011;9744;49.364;7.484;2023-04-24T00:03:26;3.63;;;1.45;;
19219;SDS011;9744;49.364;7.484;2023-04-24T00:05:54;8.88;;;1.50;;
19219;SDS011;9744;49.364;7.484;2023-04-24T00:08:22;5.13;;;1.50;;
19219;SDS011;9744;49.364;7.484;2023-04-24T00:10:49;2.17;;;1.00;;
19219;SDS011;9744;49.364;7.484;2023-04-24T00:13:19;7.47;;;1.63;;
19219;SDS011;9744;49.364;7.484;2023-04-24T00:15:46;8.65;;;1.50;;
19219;SDS011;9744;49.364;7.484;2023-04-24T00:18:14;6.18;;;1.70;;
19219;SDS011;9744;49.364;7.484;2023-04-24T00:20:41;5.80;;;1.38;;
19219;SDS011;9744;49.364;7.484;2023-04-24T00:23:08;4.82;;;1.50;;
19219;SDS011;9744;49.364;7.484;2023-04-24T00:25:36;6.15;;;1.60;;
19219;SDS011;9744;49.364;7.484;2023-04-24T00:28:03;2.47;;;1.48;;
19219;SDS011;9744;49.364;7.484;2023-04-24T00:30:32;8.45;;;1.80;;
19219;SDS011;9744;49.364;7.484;2023-04-24T00:32:59;5.13;;;1.77;;
19219;SDS011;9744;49.364;7.484;2023-04-24T00:35:27;3.65;;;1.23;;
19219;SDS011;9744;49.364;7.484;2023-04-24T00:37:54;4.47;;;1.50;;
19219;SDS011;9744;49.364;7.484;2023-04-24T00:40:21;4.47;;;1.90;;
19219;SDS011;9744;49.364;7.484;2023-04-24T00:42:49;5.60;;;1.58;;
19219;SDS011;9744;49.364;7.484;2023-04-24T00:45:16;4.63;;;1.50;;
19219;SDS011;9744;49.364;7.484;2023-04-24T00:47:46;7.55;;;1.30;;
19219;SDS011;9744;49.364;7.484;2023-04-24T00:50:15;6.47;;;1.50;;
19219;SDS011;9744;49.364;7.484;2023-04-24T00:52:43;8.25;;;1.80;;
19219;SDS011;9744;49.364;7.484;2023-04-24T00:55:10;2.85;;;1.30;;
19219;SDS011;9744;49.364;7.484;2023-04-24T00:57:38;3.53;;;1.60;;
19219;SDS011;9744;49.364;7.484;2023-04-24T01:00:12;5.40;;;1.38;;
19219;SDS011;9744;49.364;7.484;2023-04-24T01:02:41;5.20;;;1.45;;
19219;SDS011;9744;49.364;7.484;2023-04-24T01:05:13;2.78;;;1.20;;
19219;SDS011;9744;49.364;7.484;2023-04-24T01:07:43;3.15;;;1.45;;
19219;SDS011;9744;49.364;7.484;2023-04-24T01:10:13;4.00;;;1.10;;
19219;SDS011;9744;49.364;7.484;2023-04-24T01:12:44;3.47;;;0.98;;
19219;SDS011;9744;49.364;7.484;2023-04-24T01:15:12;1.75;;;0.70;;
19219;SDS011;9744;49.364;7.484;2023-04-24T01:17:41;3.42;;;0.60;;
19219;SDS011;9744;49.364;7.484;2023-04-24T01:20:09;1.52;;;0.80;;
19219;SDS011;9744;49.364;7.484;2023-04-24T01:22:38;3.70;;;1.15;;
19219;SDS011;9744;49.364;7.484;2023-04-24T01:25:06;1.00;;;0.85;;
19219;SDS011;9744;49.364;7.484;2023-04-24T01:27:34;1.95;;;1.00;;
19219;SDS011;9744;49.364;7.484;2023-04-24T01:30:01;2.55;;;1.40;;
19219;SDS011;9744;49.364;7.484;2023-04-24T01:32:31;2.47;;;1.30;;
19219;SDS011;9744;49.364;7.484;2023-04-24T01:35:01;3.40;;;1.70;;
19219;SDS011;9744;49.364;7.484;2023-04-24T01:37:46;4.63;;;1.73;;
19219;SDS011;9744;49.364;7.484;2023-04-24T01:40:13;2.35;;;2.00;;
19219;SDS011;9744;49.364;7.484;2023-04-24T01:42:44;3.15;;;2.20;;
19219;SDS011;9744;49.364;7.484;2023-04-24T01:45:16;7.85;;;2.10;;
19219;SDS011;9744;49.364;7.484;2023-04-24T01:47:45;3.20;;;2.30;;
19219;SDS011;9744;49.364;7.484;2023-04-24T01:50:17;6.43;;;2.55;;
19219;SDS011;9744;49.364;7.484;2023-04-24T01:52:47;2.72;;;2.40;;
19219;SDS011;9744;49.364;7.484;2023-04-24T01:55:16;21.17;;;4.90;;
19219;SDS011;9744;49.364;7.484;2023-04-24T01:57:47;3.13;;;2.83;;
19219;SDS011;9744;49.364;7.484;2023-04-24T02:03:15;4.03;;;3.05;;
19219;SDS011;9744;49.364;7.484;2023-04-24T02:05:44;5.95;;;3.53;;
19219;SDS011;9744;49.364;7.484;2023-04-24T02:08:14;4.38;;;3.55;;
19219;SDS011;9744;49.364;7.484;2023-04-24T02:10:44;7.88;;;4.15;;
19219;SDS011;9744;49.364;7.484;2023-04-24T02:13:14;8.00;;;4.97;;
19219;SDS011;9744;49.364;7.484;2023-04-24T02:15:53;4.28;;;3.50;;
19219;SDS011;9744;49.364;7.484;2023-04-24T02:18:28;6.25;;;4.15;;
19219;SDS011;9744;49.364;7.484;2023-04-24T02:25:04;7.82;;;4.20;;
19219;SDS011;9744;49.364;7.484;2023-04-24T02:27:37;4.75;;;4.10;;
19219;SDS011;9744;49.364;7.484;2023-04-24T02:30:07;4.47;;;3.65;;
19219;SDS011;9744;49.364;7.484;2023-04-24T02:32:39;5.82;;;4.05;;
19219;SDS011;9744;49.364;7.484;2023-04-24T02:35:10;8.52;;;4.18;;
19219;SDS011;9744;49.364;7.484;2023-04-24T02:37:49;6.20;;;4.43;;
19219;SDS011;9744;49.364;7.484;2023-04-24T02:40:23;6.88;;;4.53;;
19219;SDS011;9744;49.364;7.484;2023-04-24T02:42:54;6.40;;;4.43;;
19219;SDS011;9744;49.364;7.484;2023-04-24T02:45:24;7.22;;;4.35;;
19219;SDS011;9744;49.364;7.484;2023-04-24T02:47:53;5.93;;;4.72;;
19219;SDS011;9744;49.364;7.484;2023-04-24T02:50:28;7.20;;;5.53;;
19219;SDS011;9744;49.364;7.484;2023-04-24T02:52:59;7.28;;;4.50;;
19219;SDS011;9744;49.364;7.484;2023-04-24T02:55:47;5.20;;;4.30;;
19219;SDS011;9744;49.364;7.484;2023-04-24T02:58:22;7.93;;;4.45;;
19219;SDS011;9744;49.364;7.484;2023-04-24T03:01:00;6.55;;;4.90;;
19219;SDS011;9744;49.364;7.484;2023-04-24T03:03:34;6.47;;;4.65;;
19219;SDS011;9744;49.364;7.484;2023-04-24T03:06:13;7.10;;;4.60;;
19219;SDS011;9744;49.364;7.484;2023-04-24T03:08:51;7.40;;;4.93;;
19219;SDS011;9744;49.364;7.484;2023-04-24T03:11:27;8.48;;;5.15;;
19219;SDS011;9744;49.364;7.484;2023-04-24T03:14:09;8.05;;;5.10;;
19219;SDS011;9744;49.364;7.484;2023-04-24T03:16:49;8.75;;;4.53;;
19219;SDS011;9744;49.364;7.484;2023-04-24T03:19:22;7.75;;;4.82;;
19219;SDS011;9744;49.364;7.484;2023-04-24T03:22:05;6.28;;;4.47;;
19219;SDS011;9744;49.364;7.484;2023-04-24T03:24:40;7.20;;;5.55;;
19219;SDS011;9744;49.364;7.484;2023-04-24T03:30:51;8.40;;;5.88;;
19219;SDS011;9744;49.364;7.484;2023-04-24T03:33:34;7.63;;;5.40;;
19219;SDS011;9744;49.364;7.484;2023-04-24T03:36:07;8.85;;;4.97;;
19219;SDS011;9744;49.364;7.484;2023-04-24T03:38:52;11.85;;;6.15;;
19219;SDS011;9744;49.364;7.484;2023-04-24T03:41:40;8.63;;;5.90;;
19219;SDS011;9744;49.364;7.484;2023-04-24T03:44:26;7.72;;;5.95;;
19219;SDS011;9744;49.364;7.484;2023-04-24T03:46:57;11.32;;;5.78;;
19219;SDS011;9744;49.364;7.484;2023-04-24T03:52:53;14.15;;;8.60;;
19219;SDS011;9744;49.364;7.484;2023-04-24T03:55:53;10.60;;;7.13;;
19219;SDS011;9744;49.364;7.484;2023-04-24T03:58:27;11.20;;;7.38;;
19219;SDS011;9744;49.364;7.484;2023-04-24T04:00:59;14.70;;;7.47;;
19219;SDS011;9744;49.364;7.484;2023-04-24T04:03:52;12.00;;;8.32;;
19219;SDS011;9744;49.364;7.484;2023-04-24T04:06:25;15.40;;;8.82;;
19219;SDS011;9744;49.364;7.484;2023-04-24T04:08:56;14.18;;;8.45;;
19219;SDS011;9744;49.364;7.484;2023-04-24T04:11:24;11.98;;;8.88;;
19219;SDS011;9744;49.364;7.484;2023-04-24T04:13:54;12.60;;;8.80;;
19219;SDS011;9744;49.364;7.484;2023-04-24T04:16:23;14.65;;;8.35;;
19219;SDS011;9744;49.364;7.484;2023-04-24T04:18:55;11.15;;;8.60;;
19219;SDS011;9744;49.364;7.484;2023-04-24T04:21:38;12.65;;;8.52;;
19219;SDS011;9744;49.364;7.484;2023-04-24T04:24:23;15.05;;;8.30;;
19219;SDS011;9744;49.364;7.484;2023-04-24T04:26:57;15.30;;;9.90;;
19219;SDS011;9744;49.364;7.484;2023-04-24T04:29:33;15.73;;;8.45;;
19219;SDS011;9744;49.364;7.484;2023-04-24T04:32:06;15.68;;;9.73;;
19219;SDS011;9744;49.364;7.484;2023-04-24T04:34:41;13.02;;;8.80;;
19219;SDS011;9744;49.364;7.484;2023-04-24T04:37:14;13.00;;;8.40;;
19219;SDS011;9744;49.364;7.484;2023-04-24T04:39:51;12.52;;;8.73;;
19219;SDS011;9744;49.364;7.484;2023-04-24T04:42:24;15.70;;;9.52;;
19219;SDS011;9744;49.364;7.484;2023-04-24T04:44:52;14.35;;;9.77;;
19219;SDS011;9744;49.364;7.484;2023-04-24T04:47:30;14.07;;;9.57;;
19219;SDS011;9744;49.364;7.484;2023-04-24T04:50:00;17.58;;;9.70;;
19219;SDS011;9744;49.364;7.484;2023-04-24T04:52:31;13.40;;;9.85;;
19219;SDS011;9744;49.364;7.484;2023-04-24T04:55:12;15.30;;;10.30;;
19219;SDS011;9744;49.364;7.484;2023-04-24T04:58:11;17.63;;;9.77;;
19219;SDS011;9744;49.364;7.484;2023-04-24T05:00:44;16.73;;;9.85;;
19219;SDS011;9744;49.364;7.484;2023-04-24T05:03:29;16.15;;;9.98;;
19219;SDS011;9744;49.364;7.484;2023-04-24T05:06:03;17.20;;;10.13;;
19219;SDS011;9744;49.364;7.484;2023-04-24T05:08:38;17.75;;;10.27;;
19219;SDS011;9744;49.364;7.484;2023-04-24T05:11:17;19.92;;;9.90;;
19219;SDS011;9744;49.364;7.484;2023-04-24T05:13:57;12.60;;;8.85;;
19219;SDS011;9744;49.364;7.484;2023-04-24T05:16:46;12.93;;;9.27;;
19219;SDS011;9744;49.364;7.484;2023-04-24T05:19:41;17.17;;;10.02;;
19219;SDS011;9744;49.364;7.484;2023-04-24T05:22:15;15.93;;;10.27;;
19219;SDS011;9744;49.364;7.484;2023-04-24T05:24:51;16.55;;;11.13;;
19219;SDS011;9744;49.364;7.484;2023-04-24T05:27:36;17.45;;;9.40;;
19219;SDS011;9744;49.364;7.484;2023-04-24T05:30:14;15.27;;;9.77;;
19219;SDS011;9744;49.364;7.484;2023-04-24T05:32:43;17.83;;;10.43;;
19219;SDS011;9744;49.364;7.484;2023-04-24T05:35:16;14.35;;;10.25;;
19219;SDS011;9744;49.364;7.484;2023-04-24T05:37:47;16.02;;;9.15;;
19219;SDS011;9744;49.364;7.484;2023-04-24T05:40:21;18.92;;;9.27;;
19219;SDS011;9744;49.364;7.484;2023-04-24T05:42:54;16.67;;;8.85;;
19219;SDS011;9744;49.364;7.484;2023-04-24T05:45:34;12.80;;;9.38;;
19219;SDS011;9744;49.364;7.484;2023-04-24T05:48:16;12.80;;;8.93;;
19219;SDS011;9744;49.364;7.484;2023-04-24T05:51:08;15.40;;;8.68;;
19219;SDS011;9744;49.364;7.484;2023-04-24T05:53:49;10.80;;;8.20;;
19219;SDS011;9744;49.364;7.484;2023-04-24T05:56:50;10.93;;;7.85;;
19219;SDS011;9744;49.364;7.484;2023-04-24T05:59:36;18.02;;;8.30;;
19219;SDS011;9744;49.364;7.484;2023-04-24T06:02:10;10.35;;;7.53;;
19219;SDS011;9744;49.364;7.484;2023-04-24T06:04:46;13.57;;;7.57;;
19219;SDS011;9744;49.364;7.484;2023-04-24T06:07:21;16.17;;;8.20;;
19219;SDS011;9744;49.364;7.484;2023-04-24T06:09:56;14.02;;;8.27;;
19219;SDS011;9744;49.364;7.484;2023-04-24T06:12:38;12.73;;;7.60;;
19219;SDS011;9744;49.364;7.484;2023-04-24T06:15:16;10.00;;;7.53;;
19219;SDS011;9744;49.364;7.484;2023-04-24T06:17:59;10.05;;;7.05;;
19219;SDS011;9744;49.364;7.484;2023-04-24T06:20:35;10.93;;;6.90;;
19219;SDS011;9744;49.364;7.484;2023-04-24T06:23:10;11.10;;;6.72;;
19219;SDS011;9744;49.364;7.484;2023-04-24T06:25:44;9.18;;;6.63;;
19219;SDS011;9744;49.364;7.484;2023-04-24T06:28:14;11.02;;;6.57;;
19219;SDS011;9744;49.364;7.484;2023-04-24T06:30:42;10.35;;;5.72;;
19219;SDS011;9744;49.364;7.484;2023-04-24T06:33:11;9.90;;;5.78;;
19219;SDS011;9744;49.364;7.484;2023-04-24T06:35:41;9.55;;;5.25;;
19219;SDS011;9744;49.364;7.484;2023-04-24T06:38:09;8.25;;;4.70;;
19219;SDS011;9744;49.364;7.484;2023-04-24T06:40:37;7.38;;;4.80;;
19219;SDS011;9744;49.364;7.484;2023-04-24T06:43:04;8.07;;;4.82;;
19219;SDS011;9744;49.364;7.484;2023-04-24T06:45:32;6.32;;;4.70;;
19219;SDS011;9744;49.364;7.484;2023-04-24T06:47:59;6.43;;;4.80;;
19219;SDS011;9744;49.364;7.484;2023-04-24T06:50:27;6.35;;;4.60;;
19219;SDS011;9744;49.364;7.484;2023-04-24T06:52:54;6.10;;;4.50;;
19219;SDS011;9744;49.364;7.484;2023-04-24T06:55:23;6.57;;;4.20;;
19219;SDS011;9744;49.364;7.484;2023-04-24T06:57:51;8.10;;;4.40;;
19219;SDS011;9744;49.364;7.484;2023-04-24T07:00:21;4.93;;;4.25;;
19219;SDS011;9744;49.364;7.484;2023-04-24T07:02:49;6.40;;;3.90;;
19219;SDS011;9744;49.364;7.484;2023-04-24T07:05:16;6.47;;;4.15;;
19219;SDS011;9744;49.364;7.484;2023-04-24T07:07:45;9.18;;;4.25;;
19219;SDS011;9744;49.364;7.484;2023-04-24T07:10:14;6.57;;;4.03;;
19219;SDS011;9744;49.364;7.484;2023-04-24T07:12:43;19.25;;;9.38;;
19219;SDS011;9744;49.364;7.484;2023-04-24T07:15:10;13.48;;;4.53;;
19219;SDS011;9744;49.364;7.484;2023-04-24T07:17:38;15.10;;;7.85;;
19219;SDS011;9744;49.364;7.484;2023-04-24T07:20:09;5.97;;;4.05;;
19219;SDS011;9744;49.364;7.484;2023-04-24T07:22:39;14.25;;;7.90;;
19219;SDS011;9744;49.364;7.484;2023-04-24T07:25:07;8.80;;;4.65;;
19219;SDS011;9744;49.364;7.484;2023-04-24T07:27:35;6.00;;;4.47;;
19219;SDS011;9744;49.364;7.484;2023-04-24T07:30:04;6.85;;;4.22;;
19219;SDS011;9744;49.364;7.484;2023-04-24T07:32:33;6.20;;;4.47;;
19219;SDS011;9744;49.364;7.484;2023-04-24T07:35:01;8.23;;;4.95;;
19219;SDS011;9744;49.364;7.484;2023-04-24T07:37:29;7.32;;;4.43;;
19219;SDS011;9744;49.364;7.484;2023-04-24T07:39:57;5.75;;;4.22;;
19219;SDS011;9744;49.364;7.484;2023-04-24T07:42:25;10.07;;;4.30;;
19219;SDS011;9744;49.364;7.484;2023-04-24T07:44:52;7.35;;;4.72;;
19219;SDS011;9744;49.364;7.484;2023-04-24T07:47:22;7.22;;;4.50;;
19219;SDS011;9744;49.364;7.484;2023-04-24T07:49:51;6.57;;;4.35;;
19219;SDS011;9744;49.364;7.484;2023-04-24T07:52:18;13.80;;;7.03;;
19219;SDS011;9744;49.364;7.484;2023-04-24T07:54:45;8.50;;;4.53;;
19219;SDS011;9744;49.364;7.484;2023-04-24T07:57:12;9.68;;;5.85;;
19219;SDS011;9744;49.364;7.484;2023-04-24T07:59:40;12.13;;;4.72;;
19219;SDS011;9744;49.364;7.484;2023-04-24T08:02:07;6.82;;;4.10;;
19219;SDS011;9744;49.364;7.484;2023-04-24T08:04:36;8.27;;;4.35;;
19219;SDS011;9744;49.364;7.484;2023-04-24T08:07:04;7.50;;;4.90;;
19219;SDS011;9744;49.364;7.484;2023-04-24T08:09:31;8.60;;;4.57;;
19219;SDS011;9744;49.364;7.484;2023-04-24T08:38:34;9.20;;;5.10;;
19219;SDS011;9744;49.364;7.484;2023-04-24T08:41:02;10.20;;;6.22;;
19219;SDS011;9744;49.364;7.484;2023-04-24T08:43:31;10.40;;;5.97;;
19219;SDS011;9744;49.364;7.484;2023-04-24T08:46:03;9.00;;;6.55;;
19219;SDS011;9744;49.364;7.484;2023-04-24T08:48:31;10.40;;;6.60;;
19219;SDS011;9744;49.364;7.484;2023-04-24T08:51:01;9.95;;;6.13;;
19219;SDS011;9744;49.364;7.484;2023-04-24T08:53:33;10.50;;;7.18;;
19219;SDS011;9744;49.364;7.484;2023-04-24T08:56:12;12.07;;;7.00;;
19219;SDS011;9744;49.364;7.484;2023-04-24T08:58:57;14.00;;;6.85;;
19219;SDS011;9744;49.364;7.484;2023-04-24T09:01:30;10.15;;;7.22;;
19219;SDS011;9744;49.364;7.484;2023-04-24T09:04:16;13.55;;;7.40;;
19219;SDS011;9744;49.364;7.484;2023-04-24T09:06:54;11.32;;;7.50;;
19219;SDS011;9744;49.364;7.484;2023-04-24T09:09:41;11.98;;;7.15;;
19219;SDS011;9744;49.364;7.484;2023-04-24T09:12:15;11.98;;;6.53;;
19219;SDS011;9744;49.364;7.484;2023-04-24T09:18:23;10.60;;;7.30;;
19219;SDS011;9744;49.364;7.484;2023-04-24T09:20:59;13.38;;;8.60;;
19219;SDS011;9744;49.364;7.484;2023-04-24T09:23:28;14.07;;;8.65;;
19219;SDS011;9744;49.364;7.484;2023-04-24T09:25:59;15.00;;;8.90;;
19219;SDS011;9744;49.364;7.484;2023-04-24T09:28:30;11.80;;;8.20;;
19219;SDS011;9744;49.364;7.484;2023-04-24T09:31:04;13.55;;;9.23;;
19219;SDS011;9744;49.364;7.484;2023-04-24T09:33:34;14.10;;;9.55;;
19219;SDS011;9744;49.364;7.484;2023-04-24T09:36:02;18.40;;;9.63;;
19219;SDS011;9744;49.364;7.484;2023-04-24T09:38:33;17.83;;;9.68;;
19219;SDS011;9744;49.364;7.484;2023-04-24T09:41:04;17.30;;;9.75;;
19219;SDS011;9744;49.364;7.484;2023-04-24T09:43:34;18.08;;;9.35;;
19219;SDS011;9744;49.364;7.484;2023-04-24T09:46:04;14.93;;;9.35;;
19219;SDS011;9744;49.364;7.484;2023-04-24T09:48:37;14.77;;;9.23;;
19219;SDS011;9744;49.364;7.484;2023-04-24T09:51:09;14.68;;;8.85;;
19219;SDS011;9744;49.364;7.484;2023-04-24T09:53:39;15.43;;;9.43;;
19219;SDS011;9744;49.364;7.484;2023-04-24T09:56:15;16.60;;;9.55;;
19219;SDS011;9744;49.364;7.484;2023-04-24T09:58:45;13.98;;;9.68;;
19219;SDS011;9744;49.364;7.484;2023-04-24T10:01:13;16.35;;;10.45;;
19219;SDS011;9744;49.364;7.484;2023-04-24T10:03:41;15.65;;;10.20;;
19219;SDS011;9744;49.364;7.484;2023-04-24T10:06:11;18.23;;;10.80;;
19219;SDS011;9744;49.364;7.484;2023-04-24T10:08:39;19.38;;;11.15;;
19219;SDS011;9744;49.364;7.484;2023-04-24T10:11:08;18.15;;;10.52;;
19219;SDS011;9744;49.364;7.484;2023-04-24T10:13:38;16.70;;;9.68;;
19219;SDS011;9744;49.364;7.484;2023-04-24T10:16:08;16.90;;;10.38;;
19219;SDS011;9744;49.364;7.484;2023-04-24T10:18:37;19.70;;;10.25;;
19219;SDS011;9744;49.364;7.484;2023-04-24T10:21:07;15.77;;;10.52;;
19219;SDS011;9744;49.364;7.484;2023-04-24T10:23:36;19.98;;;10.23;;
19219;SDS011;9744;49.364;7.484;2023-04-24T10:26:08;13.45;;;9.48;;
19219;SDS011;9744;49.364;7.484;2023-04-24T10:28:39;17.40;;;9.60;;
19219;SDS011;9744;49.364;7.484;2023-04-24T10:31:08;16.23;;;9.70;;
19219;SDS011;9744;49.364;7.484;2023-04-24T10:33:43;15.70;;;9.57;;
19219;SDS011;9744;49.364;7.484;2023-04-24T10:36:13;17.40;;;9.80;;
19219;SDS011;9744;49.364;7.484;2023-04-24T10:38:45;15.90;;;9.35;;
19219;SDS011;9744;49.364;7.484;2023-04-24T10:41:14;11.77;;;8.75;;
19219;SDS011;9744;49.364;7.484;2023-04-24T10:43:47;12.85;;;8.73;;
19219;SDS011;9744;49.364;7.484;2023-04-24T10:46:16;16.83;;;8.48;;
19219;SDS011;9744;49.364;7.484;2023-04-24T10:48:52;13.93;;;8.75;;
19219;SDS011;9744;49.364;7.484;2023-04-24T10:51:21;15.05;;;7.80;;
19219;SDS011;9744;49.364;7.484;2023-04-24T10:53:49;11.15;;;7.95;;
19219;SDS011;9744;49.364;7.484;2023-04-24T10:56:17;12.65;;;7.78;;
19219;SDS011;9744;49.364;7.484;2023-04-24T10:58:51;11.85;;;8.02;;
19219;SDS011;9744;49.364;7.484;2023-04-24T11:01:23;13.63;;;7.63;;
19219;SDS011;9744;49.364;7.484;2023-04-24T11:03:54;11.65;;;7.25;;
19219;SDS011;9744;49.364;7.484;2023-04-24T11:06:28;12.35;;;7.00;;
19219;SDS011;9744;49.364;7.484;2023-04-24T11:08:59;11.15;;;7.63;;
19219;SDS011;9744;49.364;7.484;2023-04-24T11:11:30;11.73;;;7.50;;
19219;SDS011;9744;49.364;7.484;2023-04-24T11:14:04;11.90;;;7.25;;
19219;SDS011;9744;49.364;7.484;2023-04-24T11:16:38;11.05;;;6.93;;
19219;SDS011;9744;49.364;7.484;2023-04-24T11:19:10;17.55;;;7.07;;
19219;SDS011;9744;49.364;7.484;2023-04-24T11:21:46;13.95;;;6.88;;
19219;SDS011;9744;49.364;7.484;2023-04-24T11:24:23;12.38;;;7.07;;
19219;SDS011;9744;49.364;7.484;2023-04-24T11:26:52;11.13;;;6.70;;
19219;SDS011;9744;49.364;7.484;2023-04-24T11:29:22;13.07;;;6.35;;
19219;SDS011;9744;49.364;7.484;2023-04-24T11:32:14;15.40;;;6.60;;
19219;SDS011;9744;49.364;7.484;2023-04-24T11:34:45;12.65;;;6.78;;
19219;SDS011;9744;49.364;7.484;2023-04-24T11:37:13;12.27;;;6.93;;
19219;SDS011;9744;49.364;7.484;2023-04-24T11:39:40;12.60;;;6.72;;
19219;SDS011;9744;49.364;7.484;2023-04-24T11:42:08;12.10;;;6.85;;
19219;SDS011;9744;49.364;7.484;2023-04-24T11:44:37;12.57;;;7.22;;
19219;SDS011;9744;49.364;7.484;2023-04-24T11:47:06;10.82;;;6.85;;
19219;SDS011;9744;49.364;7.484;2023-04-24T11:49:36;10.70;;;7.60;;
19219;SDS011;9744;49.364;7.484;2023-04-24T11:52:03;11.48;;;6.80;;
19219;SDS011;9744;49.364;7.484;2023-04-24T11:54:32;13.77;;;7.60;;
19219;SDS011;9744;49.364;7.484;2023-04-24T11:57:00;15.93;;;5.97;;
19219;SDS011;9744;49.364;7.484;2023-04-24T11:59:34;10.88;;;6.72;;
19219;SDS011;9744;49.364;7.484;2023-04-24T12:02:05;9.07;;;6.03;;
19219;SDS011;9744;49.364;7.484;2023-04-24T12:04:39;15.68;;;7.00;;
19219;SDS011;9744;49.364;7.484;2023-04-24T12:07:08;13.52;;;5.80;;
19219;SDS011;9744;49.364;7.484;2023-04-24T12:09:42;9.02;;;6.20;;
19219;SDS011;9744;49.364;7.484;2023-04-24T12:12:11;13.38;;;6.10;;
19219;SDS011;9744;49.364;7.484;2023-04-24T12:14:48;29.25;;;7.78;;
19219;SDS011;9744;49.364;7.484;2023-04-24T12:17:17;9.82;;;6.18;;
19219;SDS011;9744;49.364;7.484;2023-04-24T12:19:50;11.20;;;6.75;;
19219;SDS011;9744;49.364;7.484;2023-04-24T12:22:18;11.18;;;7.07;;
19219;SDS011;9744;49.364;7.484;2023-04-24T12:24:55;11.93;;;7.25;;
19219;SDS011;9744;49.364;7.484;2023-04-24T12:27:29;13.75;;;7.57;;
19219;SDS011;9744;49.364;7.484;2023-04-24T12:29:59;11.27;;;7.32;;
19219;SDS011;9744;49.364;7.484;2023-04-24T12:32:31;12.20;;;8.07;;
19219;SDS011;9744;49.364;7.484;2023-04-24T12:34:58;14.98;;;8.13;;
19219;SDS011;9744;49.364;7.484;2023-04-24T12:37:26;16.33;;;8.55;;
19219;SDS011;9744;49.364;7.484;2023-04-24T12:40:02;13.65;;;7.72;;
19219;SDS011;9744;49.364;7.484;2023-04-24T12:42:32;10.50;;;6.88;;
19219;SDS011;9744;49.364;7.484;2023-04-24T12:45:02;10.73;;;6.97;;
19219;SDS011;9744;49.364;7.484;2023-04-24T12:47:32;13.35;;;6.82;;
19219;SDS011;9744;49.364;7.484;2023-04-24T12:50:01;9.63;;;7.07;;
19219;SDS011;9744;49.364;7.484;2023-04-24T12:52:31;10.45;;;6.88;;
19219;SDS011;9744;49.364;7.484;2023-04-24T12:55:00;11.15;;;6.80;;
19219;SDS011;9744;49.364;7.484;2023-04-24T12:57:29;12.43;;;6.90;;
19219;SDS011;9744;49.364;7.484;2023-04-24T12:59:58;11.45;;;6.65;;
19219;SDS011;9744;49.364;7.484;2023-04-24T13:02:27;9.70;;;6.55;;
19219;SDS011;9744;49.364;7.484;2023-04-24T13:04:56;10.00;;;6.43;;
19219;SDS011;9744;49.364;7.484;2023-04-24T13:07:24;9.70;;;6.47;;
19219;SDS011;9744;49.364;7.484;2023-04-24T13:09:52;11.35;;;6.85;;
19219;SDS011;9744;49.364;7.484;2023-04-24T13:12:20;17.42;;;9.35;;
19219;SDS011;9744;49.364;7.484;2023-04-24T13:14:49;18.08;;;7.93;;
19219;SDS011;9744;49.364;7.484;2023-04-24T13:17:16;14.18;;;7.97;;
19219;SDS011;9744;49.364;7.484;2023-04-24T13:19:45;9.45;;;5.43;;
19219;SDS011;9744;49.364;7.484;2023-04-24T13:22:12;8.05;;;5.13;;
19219;SDS011;9744;49.364;7.484;2023-04-24T13:24:39;7.38;;;5.85;;
19219;SDS011;9744;49.364;7.484;2023-04-24T13:27:07;10.65;;;6.25;;
19219;SDS011;9744;49.364;7.484;2023-04-24T13:29:35;10.95;;;7.05;;
19219;SDS011;9744;49.364;7.484;2023-04-24T13:32:02;12.38;;;6.68;;
19219;SDS011;9744;49.364;7.484;2023-04-24T13:34:30;10.90;;;7.13;;
19219;SDS011;9744;49.364;7.484;2023-04-24T13:36:59;8.25;;;5.75;;
19219;SDS011;9744;49.364;7.484;2023-04-24T13:39:26;10.02;;;6.85;;
19219;SDS011;9744;49.364;7.484;2023-04-24T13:41:54;9.10;;;5.82;;
19219;SDS011;9744;49.364;7.484;2023-04-24T13:44:22;9.50;;;6.50;;
19219;SDS011;9744;49.364;7.484;2023-04-24T13:46:50;8.32;;;6.32;;
19219;SDS011;9744;49.364;7.484;2023-04-24T13:49:19;9.65;;;6.15;;
19219;SDS011;9744;49.364;7.484;2023-04-24T13:51:48;12.15;;;6.93;;
19219;SDS011;9744;49.364;7.484;2023-04-24T13:54:16;10.15;;;6.32;;
19219;SDS011;9744;49.364;7.484;2023-04-24T13:56:44;11.63;;;7.45;;
19219;SDS011;9744;49.364;7.484;2023-04-24T13:59:12;8.65;;;6.88;;
19219;SDS011;9744;49.364;7.484;2023-04-24T14:01:39;12.90;;;7.97;;
19219;SDS011;9744;49.364;7.484;2023-04-24T14:04:07;10.50;;;6.70;;
19219;SDS011;9744;49.364;7.484;2023-04-24T14:06:34;17.55;;;7.35;;
19219;SDS011;9744;49.364;7.484;2023-04-24T14:09:02;11.40;;;7.63;;
19219;SDS011;9744;49.364;7.484;2023-04-24T14:11:31;9.52;;;5.30;;
19219;SDS011;9744;49.364;7.484;2023-04-24T14:13:58;5.82;;;4.47;;
19219;SDS011;9744;49.364;7.484;2023-04-24T14:16:26;5.20;;;4.30;;
19219;SDS011;9744;49.364;7.484;2023-04-24T14:18:54;5.13;;;3.72;;
19219;SDS011;9744;49.364;7.484;2023-04-24T14:21:21;8.27;;;4.05;;
19219;SDS011;9744;49.364;7.484;2023-04-24T14:23:49;5.32;;;3.45;;
19219;SDS011;9744;49.364;7.484;2023-04-24T14:26:16;4.57;;;3.88;;
19219;SDS011;9744;49.364;7.484;2023-04-24T14:28:44;3.42;;;2.97;;
19219;SDS011;9744;49.364;7.484;2023-04-24T14:31:12;3.92;;;3.17;;
19219;SDS011;9744;49.364;7.484;2023-04-24T14:33:39;7.35;;;3.80;;
19219;SDS011;9744;49.364;7.484;2023-04-24T14:36:08;6.97;;;3.72;;
19219;SDS011;9744;49.364;7.484;2023-04-24T14:38:36;6.47;;;4.63;;
19219;SDS011;9744;49.364;7.484;2023-04-24T14:41:03;5.13;;;3.95;;
19219;SDS011;9744;49.364;7.484;2023-04-24T14:43:34;8.20;;;4.40;;
19219;SDS011;9744;49.364;7.484;2023-04-24T14:46:03;7.68;;;4.68;;
19219;SDS011;9744;49.364;7.484;2023-04-24T14:48:31;9.55;;;4.43;;
19219;SDS011;9744;49.364;7.484;2023-04-24T14:50:59;6.82;;;4.85;;
19219;SDS011;9744;49.364;7.484;2023-04-24T14:56:45;7.07;;;4.68;;
19219;SDS011;9744;49.364;7.484;2023-04-24T14:59:14;7.80;;;4.45;;
19219;SDS011;9744;49.364;7.484;2023-04-24T15:01:43;8.75;;;4.53;;
19219;SDS011;9744;49.364;7.484;2023-04-24T15:04:10;9.68;;;4.97;;
19219;SDS011;9744;49.364;7.484;2023-04-24T15:06:37;7.63;;;5.00;;
19219;SDS011;9744;49.364;7.484;2023-04-24T15:09:04;5.63;;;4.95;;
19219;SDS011;9744;49.364;7.484;2023-04-24T15:11:32;9.80;;;6.25;;
19219;SDS011;9744;49.364;7.484;2023-04-24T15:14:01;13.32;;;6.70;;
19219;SDS011;9744;49.364;7.484;2023-04-24T15:16:28;8.75;;;5.70;;
19219;SDS011;9744;49.364;7.484;2023-04-24T15:18:58;9.40;;;6.20;;
19219;SDS011;9744;49.364;7.484;2023-04-24T15:21:26;10.77;;;5.72;;
19219;SDS011;9744;49.364;7.484;2023-04-24T15:23:53;10.65;;;6.15;;
19219;SDS011;9744;49.364;7.484;2023-04-24T15:26:20;9.55;;;5.82;;
19219;SDS011;9744;49.364;7.484;2023-04-24T15:28:48;11.85;;;6.28;;
19219;SDS011;9744;49.364;7.484;2023-04-24T15:31:17;9.55;;;6.15;;
19219;SDS011;9744;49.364;7.484;2023-04-24T15:33:44;11.93;;;6.47;;
19219;SDS011;9744;49.364;7.484;2023-04-24T15:36:13;10.38;;;5.50;;
19219;SDS011;9744;49.364;7.484;2023-04-24T15:38:42;11.93;;;5.65;;
19219;SDS011;9744;49.364;7.484;2023-04-24T15:41:12;6.65;;;5.10;;
19219;SDS011;9744;49.364;7.484;2023-04-24T15:43:41;10.32;;;4.82;;
19219;SDS011;9744;49.364;7.484;2023-04-24T15:46:09;9.60;;;5.15;;
19219;SDS011;9744;49.364;7.484;2023-04-24T15:48:36;10.85;;;5.68;;
19219;SDS011;9744;49.364;7.484;2023-04-24T15:51:06;6.40;;;4.70;;
19219;SDS011;9744;49.364;7.484;2023-04-24T15:53:35;8.15;;;4.80;;
19219;SDS011;9744;49.364;7.484;2023-04-24T15:56:02;6.28;;;5.20;;
19219;SDS011;9744;49.364;7.484;2023-04-24T15:58:29;9.13;;;4.93;;
19219;SDS011;9744;49.364;7.484;2023-04-24T16:00:57;8.27;;;4.90;;
19219;SDS011;9744;49.364;7.484;2023-04-24T16:03:24;8.77;;;4.82;;
19219;SDS011;9744;49.364;7.484;2023-04-24T16:05:54;8.13;;;4.90;;